Time;durP1;ratioP1;P1;durP2;ratioP2;P2;SDS_P1;SDS_P2;PMS_P1;PMS_P2;Temp;Humidity;BMP_temperature;BMP_pressure;BME280_temperature;BME280_humidity;BME280_pressure;Samples;Min_cycle;Max_cycle;Signal;HPM_P1;HPM_P2
2023/02/02 00:01:34;;;;;;;18.52;3.30;;;;;;;11.49;57.75;102022.34;4967194;28;123823;-71
2023/02/02 00:04:02;;;;;;;9.95;2.45;;;;;;;11.49;57.83;102030.31;4979471;28;124737;-71
2023/02/02 00:06:30;;;;;;;11.00;2.40;;;;;;;11.52;57.79;102031.97;4966143;28;114910;-71
2023/02/02 00:08:59;;;;;;;12.27;2.17;;;;;;;11.50;57.74;102019.63;4963545;28;114681;-70
2023/02/02 00:11:27;;;;;;;10.32;2.53;;;;;;;11.52;57.93;102027.53;4962204;28;123807;-70
2023/02/02 00:13:54;;;;;;;13.13;2.38;;;;;;;11.54;58.00;102022.19;4963007;28;123866;-70
2023/02/02 00:16:42;;;;;;;13.35;2.63;;;;;;;11.53;57.78;102026.63;4957516;28;114341;-71
2023/02/02 00:19:18;;;;;;;15.93;3.05;;;;;;;11.54;57.87;102022.19;4959964;28;114182;-71
2023/02/02 00:21:45;;;;;;;15.88;3.10;;;;;;;11.56;57.83;102017.69;4959759;28;122197;-71
2023/02/02 00:24:14;;;;;;;13.13;2.65;;;;;;;11.56;58.02;102023.00;4960244;28;124319;-71
2023/02/02 00:26:41;;;;;;;15.15;2.75;;;;;;;11.58;57.89;102026.47;4965192;28;115122;-71
2023/02/02 00:29:18;;;;;;;13.82;3.10;;;;;;;11.59;57.96;102028.25;4961420;28;113889;-70
2023/02/02 00:31:47;;;;;;;12.63;2.72;;;;;;;11.60;57.89;102029.94;4961820;28;124129;-71
2023/02/02 00:34:15;;;;;;;19.90;3.60;;;;;;;11.60;57.84;102022.00;4954650;28;124433;-70
2023/02/02 00:36:43;;;;;;;14.43;2.90;;;;;;;11.61;57.75;102037.00;4949808;28;113547;-71
2023/02/02 00:39:15;;;;;;;15.65;2.80;;;;;;;11.61;57.86;102031.72;4963182;28;113853;-71
2023/02/02 00:41:42;;;;;;;13.73;2.50;;;;;;;11.62;57.87;102038.72;4977611;28;125407;-70
2023/02/02 00:46:55;;;;;;;12.45;2.83;;;;;;;11.63;57.93;102041.34;4952981;28;114420;-71
2023/02/02 00:49:22;;;;;;;13.57;3.08;;;;;;;11.65;57.92;102038.66;4944921;28;113850;-71
2023/02/02 00:51:49;;;;;;;15.95;3.05;;;;;;;11.65;57.92;102041.31;4978619;28;124140;-71
2023/02/02 00:54:16;;;;;;;13.35;2.58;;;;;;;11.65;57.99;102046.63;4961467;28;123943;-71
2023/02/02 00:56:43;;;;;;;9.85;2.67;;;;;;;11.66;57.97;102046.56;4964750;28;115284;-71
2023/02/02 00:59:11;;;;;;;17.02;2.80;;;;;;;11.65;57.89;102043.97;4973334;28;115589;-71
2023/02/02 01:01:38;;;;;;;15.63;2.65;;;;;;;11.65;58.11;102043.97;4966185;28;123706;-71
2023/02/02 01:04:05;;;;;;;14.73;2.95;;;;;;;11.65;58.08;102043.97;4978381;28;124323;-71
2023/02/02 01:06:33;;;;;;;13.55;2.75;;;;;;;11.63;58.08;102041.34;4975339;28;113978;-70
2023/02/02 01:09:01;;;;;;;11.82;2.65;;;;;;;11.62;58.19;102038.72;4968502;28;114626;-71
2023/02/02 01:11:29;;;;;;;18.65;2.95;;;;;;;11.62;58.26;102044.03;4963047;28;124223;-71
2023/02/02 01:13:57;;;;;;;15.07;2.67;;;;;;;11.62;57.86;102038.72;4966311;28;124504;-70
2023/02/02 01:16:24;;;;;;;18.73;3.03;;;;;;;11.62;58.27;102033.44;4964721;28;113983;-71
2023/02/02 01:18:51;;;;;;;17.42;2.70;;;;;;;11.61;58.25;102035.22;4983807;28;114501;-71
2023/02/02 01:21:19;;;;;;;11.30;2.42;;;;;;;11.60;58.58;102035.25;4968956;28;124360;-71
2023/02/02 01:23:47;;;;;;;18.10;3.00;;;;;;;11.60;58.29;102035.25;4967554;28;124411;-71
2023/02/02 01:26:15;;;;;;;14.90;3.22;;;;;;;11.60;58.43;102035.25;4965444;28;113805;-71
2023/02/02 01:28:44;;;;;;;14.80;2.70;;;;;;;11.59;58.19;102039.72;4962311;28;113252;-71
2023/02/02 01:31:13;;;;;;;14.43;2.80;;;;;;;11.60;58.56;102035.25;4975947;28;123816;-71
2023/02/02 01:33:42;;;;;;;15.68;2.53;;;;;;;11.61;58.27;102037.00;4965382;28;124795;-71
2023/02/02 01:36:13;;;;;;;14.73;2.50;;;;;;;11.61;58.37;102042.31;4959814;28;113570;-71
2023/02/02 01:38:41;;;;;;;12.57;2.65;;;;;;;11.59;58.42;102031.75;4970671;28;113121;-71
2023/02/02 01:41:13;;;;;;;21.02;3.00;;;;;;;11.60;58.24;102029.94;4966106;28;123164;-71
2023/02/02 01:43:40;;;;;;;15.27;2.85;;;;;;;11.60;58.34;102028.19;4951854;28;123733;-71
2023/02/02 01:46:23;;;;;;;18.45;3.42;;;;;;;11.60;58.07;102030.84;4959807;28;114528;-70
2023/02/02 01:49:05;;;;;;;21.45;3.05;;;;;;;11.61;58.26;102034.34;4949721;28;114577;-71
2023/02/02 01:51:51;;;;;;;15.20;3.42;;;;;;;11.60;58.26;102035.25;4965879;28;123465;-71
2023/02/02 01:54:25;;;;;;;19.17;3.45;;;;;;;11.60;58.33;102037.91;4976353;28;123944;-71
2023/02/02 01:56:58;;;;;;;8.70;2.35;;;;;;;11.61;58.28;102037.00;4956502;28;114184;-71
2023/02/02 01:59:27;;;;;;;16.30;2.92;;;;;;;11.62;58.15;102033.44;4957663;28;113473;-71
2023/02/02 02:01:55;;;;;;;12.38;2.72;;;;;;;11.62;58.21;102033.44;4973743;28;124457;-71
2023/02/02 02:04:23;;;;;;;15.80;3.22;;;;;;;11.63;58.10;102036.03;4977209;28;122263;-71
2023/02/02 02:06:52;;;;;;;16.35;2.63;;;;;;;11.64;58.13;102036.91;4963245;28;114353;-71
2023/02/02 02:09:20;;;;;;;14.93;3.35;;;;;;;11.64;58.24;102027.19;4968006;28;113450;-71
2023/02/02 02:11:47;;;;;;;17.23;2.60;;;;;;;11.65;58.13;102034.22;4977942;28;123507;-71
2023/02/02 02:17:26;;;;;;;16.08;2.95;;;;;;;11.64;58.06;102027.19;4980934;28;113355;-71
2023/02/02 02:26:42;;;;;;;14.60;2.42;;;;;;;11.60;58.05;102029.94;4978238;28;123289;-70
2023/02/02 02:29:29;;;;;;;15.60;2.47;;;;;;;11.60;57.88;102035.25;4977400;28;113336;-71
2023/02/02 02:32:28;;;;;;;15.43;3.00;;;;;;;11.59;58.06;102028.25;4978860;28;113352;-71
2023/02/02 02:35:10;;;;;;;14.32;2.70;;;;;;;11.59;58.05;102033.53;4978664;28;123606;-71
2023/02/02 02:37:53;;;;;;;13.77;2.58;;;;;;;11.58;58.19;102031.78;4962612;28;124180;-71
2023/02/02 02:40:31;;;;;;;16.27;2.42;;;;;;;11.60;57.95;102045.88;4963888;28;114281;-71
2023/02/02 02:43:05;;;;;;;11.35;2.35;;;;;;;11.60;58.11;102041.47;4976318;28;114868;-71
2023/02/02 02:45:33;;;;;;;15.70;2.65;;;;;;;11.61;58.27;102042.31;4980335;28;123314;-71
2023/02/02 02:48:02;;;;;;;16.65;2.80;;;;;;;11.61;58.05;102037.00;4960835;28;123938;-71
2023/02/02 02:50:30;;;;;;;11.38;2.95;;;;;;;11.61;58.03;102034.34;4962402;28;113861;-71
2023/02/02 02:53:16;;;;;;;11.85;2.35;;;;;;;11.62;57.92;102033.44;4964072;28;113246;-71
2023/02/02 02:56:13;;;;;;;17.35;3.15;;;;;;;11.61;58.25;102043.19;4967674;28;123295;-72
2023/02/02 02:58:57;;;;;;;18.70;3.20;;;;;;;11.62;58.23;102054.66;4965657;28;123685;-71
2023/02/02 03:01:58;;;;;;;22.55;3.40;;;;;;;11.61;57.78;102047.63;4971478;28;114084;-71
2023/02/02 03:04:58;;;;;;;13.18;2.83;;;;;;;11.61;58.00;102047.63;4968740;28;113341;-71
2023/02/02 03:07:32;;;;;;;12.75;2.80;;;;;;;11.59;57.95;102038.84;4950667;28;122971;-71
2023/02/02 03:10:01;;;;;;;14.77;2.63;;;;;;;11.60;57.91;102040.56;4953852;28;123496;-71
2023/02/02 03:12:28;;;;;;;15.23;2.95;;;;;;;11.60;57.97;102040.56;4958862;28;113830;-72
2023/02/02 03:14:55;;;;;;;16.50;2.80;;;;;;;11.60;58.10;102035.25;4966808;28;114639;-71
2023/02/02 03:17:22;;;;;;;15.82;2.83;;;;;;;11.60;57.95;102035.25;4963282;28;124010;-71
2023/02/02 03:19:49;;;;;;;13.25;2.78;;;;;;;11.60;57.94;102035.25;4956811;28;124048;-71
2023/02/02 03:22:16;;;;;;;16.13;2.97;;;;;;;11.60;57.86;102024.66;4961076;28;114073;-71
2023/02/02 03:24:43;;;;;;;13.63;2.88;;;;;;;11.58;57.99;102021.19;4962535;28;113881;-71
2023/02/02 03:27:11;;;;;;;17.02;2.67;;;;;;;11.58;57.97;102023.84;4952932;28;124042;-71
2023/02/02 03:29:38;;;;;;;17.60;3.20;;;;;;;11.56;57.86;102018.56;4960715;28;125037;-72
2023/02/02 03:32:05;;;;;;;14.23;2.70;;;;;;;11.55;57.93;102026.59;4959060;28;114910;-71
2023/02/02 03:34:32;;;;;;;15.90;2.97;;;;;;;11.55;58.04;102021.28;4955478;28;114644;-71
2023/02/02 03:36:59;;;;;;;20.08;2.65;;;;;;;11.54;57.95;102027.50;4971451;28;123916;-71
2023/02/02 03:39:26;;;;;;;17.23;2.80;;;;;;;11.53;57.85;102023.09;4975143;28;124314;-71
2023/02/02 03:41:53;;;;;;;15.40;2.72;;;;;;;11.53;57.95;102028.41;4968509;28;113628;-71
2023/02/02 03:44:20;;;;;;;13.90;2.67;;;;;;;11.51;57.92;102036.44;4974887;28;113193;-71
2023/02/02 03:46:47;;;;;;;17.13;2.83;;;;;;;11.50;58.00;102035.53;4957898;28;124640;-71
2023/02/02 03:49:14;;;;;;;12.85;2.63;;;;;;;11.50;57.98;102035.53;4959287;28;124196;-71
2023/02/02 03:51:43;;;;;;;19.88;3.10;;;;;;;11.50;57.94;102046.16;4963502;28;114183;-71
2023/02/02 03:54:10;;;;;;;14.85;2.33;;;;;;;11.49;58.03;102055.03;4962523;28;114897;-71
2023/02/02 03:56:37;;;;;;;14.07;2.80;;;;;;;11.50;58.04;102064.72;4979690;28;124728;-71
2023/02/02 03:59:04;;;;;;;15.10;2.45;;;;;;;11.50;57.99;102077.97;4961339;28;123529;-71
2023/02/02 04:01:31;;;;;;;17.05;2.80;;;;;;;11.50;58.04;102083.28;4973463;28;114021;-71
2023/02/02 04:03:58;;;;;;;18.42;2.78;;;;;;;11.51;58.05;102076.22;4984151;28;113112;-71
2023/02/02 04:06:26;;;;;;;16.98;3.00;;;;;;;11.52;58.13;102077.94;4960218;28;124015;-71
2023/02/02 04:08:53;;;;;;;12.52;2.65;;;;;;;11.53;58.10;102084.13;4962028;28;124112;-71
2023/02/02 04:11:20;;;;;;;14.95;2.50;;;;;;;11.54;58.22;102077.91;4965495;28;114286;-71
2023/02/02 04:13:47;;;;;;;16.23;2.63;;;;;;;11.56;58.25;102081.38;4975475;28;114045;-71
2023/02/02 04:16:15;;;;;;;17.40;2.83;;;;;;;11.58;58.07;102074.25;4980037;28;122335;-71
2023/02/02 04:18:42;;;;;;;16.58;2.58;;;;;;;11.59;58.22;102065.38;4961048;28;124601;-71
2023/02/02 04:21:09;;;;;;;12.02;2.95;;;;;;;11.59;58.32;102073.34;4963233;28;114910;-71
2023/02/02 04:23:36;;;;;;;19.45;3.20;;;;;;;11.61;58.18;102063.56;4959232;28;114709;-71
2023/02/02 04:26:04;;;;;;;12.93;2.78;;;;;;;11.62;58.09;102059.97;4956338;28;123832;-71
2023/02/02 04:28:31;;;;;;;11.07;2.55;;;;;;;11.63;57.96;102067.03;4975966;28;123920;-71
2023/02/02 04:30:58;;;;;;;17.20;2.88;;;;;;;11.64;58.13;102066.97;4978875;28;114077;-71
2023/02/02 04:33:27;;;;;;;16.45;2.45;;;;;;;11.66;58.07;102064.28;4954699;28;114365;-72
2023/02/02 04:35:54;;;;;;;12.63;2.50;;;;;;;11.65;58.16;102076.66;4963338;28;123345;-71
2023/02/02 04:38:21;;;;;;;13.05;2.25;;;;;;;11.68;58.07;102075.72;4966538;28;124576;-71
2023/02/02 04:40:48;;;;;;;15.50;2.83;;;;;;;11.67;58.05;102063.34;4975292;28;115646;-71
2023/02/02 04:43:16;;;;;;;15.18;2.65;;;;;;;11.68;58.04;102067.75;4960705;28;114009;-71
2023/02/02 04:45:43;;;;;;;11.23;2.65;;;;;;;11.68;58.11;102071.28;4965130;28;124619;-71
2023/02/02 04:48:11;;;;;;;17.05;2.63;;;;;;;11.70;57.96;102063.28;4983595;28;124003;-71
2023/02/02 04:50:38;;;;;;;12.45;2.50;;;;;;;11.69;58.16;102061.53;4966603;28;114862;-71
2023/02/02 04:53:05;;;;;;;12.55;2.65;;;;;;;11.71;57.99;102054.38;4956328;28;114702;-71
2023/02/02 04:55:35;;;;;;;15.57;2.50;;;;;;;11.71;58.06;102067.66;4960789;28;124142;-71
2023/02/02 04:58:03;;;;;;;18.83;3.38;;;;;;;11.73;58.09;102064.97;4980459;28;124119;-71
2023/02/02 05:00:30;;;;;;;15.82;2.75;;;;;;;11.74;57.83;102067.56;4967328;28;113199;-71
2023/02/02 05:02:59;;;;;;;18.70;2.85;;;;;;;11.73;57.91;102068.47;4981941;28;113816;-71
2023/02/02 05:05:26;;;;;;;15.00;2.65;;;;;;;11.73;58.01;102073.78;4964356;28;123962;-71
2023/02/02 05:07:53;;;;;;;15.63;2.50;;;;;;;11.73;57.94;102067.63;4961633;28;123551;-71
2023/02/02 05:10:20;;;;;;;12.93;2.38;;;;;;;11.72;57.95;102072.06;4963440;28;114524;-71
2023/02/02 05:12:47;;;;;;;14.77;2.65;;;;;;;11.72;58.05;102066.75;4966606;28;115083;-71
2023/02/02 05:15:14;;;;;;;11.05;2.30;;;;;;;11.71;58.32;102059.69;4969454;28;124525;-71
2023/02/02 05:17:41;;;;;;;11.70;2.20;;;;;;;11.71;57.78;102059.69;4979070;28;122788;-71
2023/02/02 05:20:09;;;;;;;17.10;2.47;;;;;;;11.70;58.05;102057.97;4967221;28;114677;-71
2023/02/02 05:22:36;;;;;;;11.32;2.20;;;;;;;11.69;58.01;102046.47;4963140;28;112970;-71
2023/02/02 05:25:05;;;;;;;10.48;2.10;;;;;;;11.70;57.89;102057.97;4960163;28;124012;-71
2023/02/02 05:27:32;;;;;;;13.50;2.60;;;;;;;11.70;58.14;102063.28;4960485;28;124456;-71
2023/02/02 05:29:59;;;;;;;17.25;2.30;;;;;;;11.69;58.02;102056.22;4962726;28;114142;-71
2023/02/02 05:32:29;;;;;;;13.00;2.45;;;;;;;11.70;57.94;102073.91;4967169;28;113954;-71
2023/02/02 05:34:56;;;;;;;15.27;2.42;;;;;;;11.72;58.09;102087.13;4964634;28;124687;-71
2023/02/02 05:37:23;;;;;;;15.52;2.63;;;;;;;11.73;58.01;102084.41;4964301;28;125238;-71
2023/02/02 05:39:52;;;;;;;11.13;2.25;;;;;;;11.73;57.97;102089.72;4964025;28;115294;-71
2023/02/02 05:42:19;;;;;;;13.95;2.53;;;;;;;11.74;57.85;102086.16;4962971;28;114001;-71
2023/02/02 05:44:46;;;;;;;11.45;2.38;;;;;;;11.74;57.90;102091.47;4965935;28;124285;-70
2023/02/02 05:47:13;;;;;;;12.55;2.63;;;;;;;11.74;57.79;102102.06;4962571;28;123810;-71
2023/02/02 05:49:41;;;;;;;12.70;2.53;;;;;;;11.75;57.95;102087.88;4974076;28;114735;-70
2023/02/02 05:52:14;;;;;;;10.60;2.65;;;;;;;11.76;58.05;102080.81;4963001;28;114055;-71
2023/02/02 05:54:41;;;;;;;11.02;2.28;;;;;;;11.77;58.05;102086.06;4964011;28;124746;-71
2023/02/02 05:57:08;;;;;;;10.40;2.63;;;;;;;11.77;57.83;102086.06;4960446;28;124296;-71
2023/02/02 05:59:35;;;;;;;11.43;2.40;;;;;;;11.78;57.88;102082.47;4955475;28;115086;-71
2023/02/02 06:02:02;;;;;;;11.15;2.55;;;;;;;11.79;57.86;102100.16;4963984;28;114799;-71
2023/02/02 06:04:29;;;;;;;12.85;2.58;;;;;;;11.79;57.92;102091.31;4974069;28;125525;-71
2023/02/02 06:06:56;;;;;;;19.80;3.10;;;;;;;11.79;57.89;102086.88;4974651;28;124054;-71
2023/02/02 06:09:24;;;;;;;11.60;2.42;;;;;;;11.79;57.96;102094.84;4958051;28;114418;-70
2023/02/02 06:11:51;;;;;;;13.13;2.53;;;;;;;11.79;57.88;102089.53;4967018;28;113795;-71
2023/02/02 06:14:19;;;;;;;16.13;2.85;;;;;;;11.80;57.85;102090.41;4975306;28;124384;-71
2023/02/02 06:16:46;;;;;;;14.32;2.47;;;;;;;11.80;57.93;102088.63;4960406;28;124433;-71
2023/02/02 06:19:13;;;;;;;10.95;2.35;;;;;;;11.81;58.00;102100.97;4980716;28;114120;-71
2023/02/02 06:21:40;;;;;;;11.45;2.10;;;;;;;11.80;57.74;102091.25;4963196;28;113593;-71
2023/02/02 06:24:07;;;;;;;13.18;2.72;;;;;;;11.81;57.90;102087.72;4965197;28;123617;-70
2023/02/02 06:26:34;;;;;;;14.13;3.08;;;;;;;11.81;57.86;102086.81;4956493;28;123965;-71
2023/02/02 06:29:01;;;;;;;12.88;3.03;;;;;;;11.82;57.93;102097.41;4964146;28;114403;-71
2023/02/02 06:31:28;;;;;;;15.45;2.67;;;;;;;11.83;57.92;102095.63;4964420;28;114748;-71
2023/02/02 06:33:57;;;;;;;10.02;2.47;;;;;;;11.84;57.81;102100.00;4966213;28;124063;-71
2023/02/02 06:36:26;;;;;;;14.82;2.88;;;;;;;11.83;57.71;102096.50;4962887;28;123877;-71
2023/02/02 06:38:55;;;;;;;15.15;2.55;;;;;;;11.82;57.90;102094.75;4959293;28;113223;-71
2023/02/02 06:41:23;;;;;;;18.02;2.70;;;;;;;11.82;57.98;102100.06;4963114;28;114682;-71
2023/02/02 06:43:50;;;;;;;15.48;2.58;;;;;;;11.83;57.82;102106.25;4958442;28;124400;-71
2023/02/02 06:46:17;;;;;;;13.57;2.42;;;;;;;11.84;58.05;102115.94;4963296;28;124006;-71
2023/02/02 06:48:45;;;;;;;10.55;2.20;;;;;;;11.84;57.91;102122.09;4963358;28;114318;-71
2023/02/02 06:51:12;;;;;;;11.20;2.50;;;;;;;11.84;57.93;102119.44;4956819;28;115841;-70
2023/02/02 06:53:39;;;;;;;17.58;2.85;;;;;;;11.85;57.91;102126.50;4973704;28;124265;-70
2023/02/02 06:56:10;;;;;;;10.25;2.88;;;;;;;11.85;57.96;102121.22;4963866;28;123948;-70
2023/02/02 06:58:37;;;;;;;12.82;2.97;;;;;;;11.86;57.92;102124.72;4960109;28;114909;-71
2023/02/02 07:01:09;;;;;;;13.10;2.35;;;;;;;11.85;57.90;102126.50;4977594;28;113956;-71
2023/02/02 07:03:36;;;;;;;15.57;2.70;;;;;;;11.84;57.90;102119.44;4962885;28;123098;-70
2023/02/02 07:06:12;;;;;;;13.48;2.70;;;;;;;11.83;57.96;102131.00;4966608;28;123619;-71
2023/02/02 07:08:40;;;;;;;14.77;2.70;;;;;;;11.84;57.80;102130.06;4959848;28;114553;-71
2023/02/02 07:11:08;;;;;;;10.52;2.40;;;;;;;11.83;57.79;102133.66;4978792;28;113104;-70
2023/02/02 07:13:43;;;;;;;15.13;2.47;;;;;;;11.82;57.96;102142.53;4960331;28;124822;-71
2023/02/02 07:16:13;;;;;;;14.75;2.28;;;;;;;11.81;57.94;102130.19;4962291;28;123682;-71
2023/02/02 07:18:47;;;;;;;12.15;2.47;;;;;;;11.81;58.07;102124.88;4976768;28;114378;-70
2023/02/02 07:21:21;;;;;;;10.15;2.70;;;;;;;11.79;57.86;102142.63;4956796;28;114016;-70
2023/02/02 07:23:49;;;;;;;16.05;2.67;;;;;;;11.78;57.86;102140.88;4970599;28;122675;-71
2023/02/02 07:26:18;;;;;;;10.35;2.50;;;;;;;11.76;57.98;102139.19;4971081;28;123983;-71
2023/02/02 07:28:46;;;;;;;14.95;2.53;;;;;;;11.75;58.20;102145.41;4961412;28;115911;-71
2023/02/02 07:31:22;;;;;;;9.18;2.45;;;;;;;11.72;58.09;102135.75;4956566;28;114313;-70
2023/02/02 07:33:50;;;;;;;11.43;2.50;;;;;;;11.70;58.18;102137.59;4955068;28;123825;-71
2023/02/02 07:36:19;;;;;;;12.57;2.75;;;;;;;11.68;58.27;102134.13;4954141;28;122807;-71
2023/02/02 07:38:49;;;;;;;10.65;2.55;;;;;;;11.68;58.42;102134.13;4971114;28;115358;-71
2023/02/02 07:41:16;;;;;;;13.18;2.83;;;;;;;11.66;58.37;102142.09;4955046;28;115838;-71
2023/02/02 07:43:46;;;;;;;13.90;2.58;;;;;;;11.66;58.51;102143.91;4952118;28;124297;-71
2023/02/02 07:46:14;;;;;;;13.57;2.35;;;;;;;11.64;58.48;102137.75;4973118;28;123071;-70
2023/02/02 07:48:41;;;;;;;15.07;3.03;;;;;;;11.64;58.60;102156.31;4974188;28;113841;-71
2023/02/02 07:51:12;;;;;;;13.48;2.63;;;;;;;11.63;58.69;102167.88;4973610;28;115257;-71
2023/02/02 07:53:42;;;;;;;9.27;2.22;;;;;;;11.62;58.77;102171.41;4952207;28;124151;-71
2023/02/02 07:56:13;;;;;;;14.07;2.90;;;;;;;11.62;58.61;102171.41;4966890;28;124158;-71
2023/02/02 07:58:41;;;;;;;10.65;3.33;;;;;;;11.63;58.58;102173.16;4967097;28;114097;-70
2023/02/02 08:01:10;;;;;;;11.45;2.28;;;;;;;11.61;58.60;102172.34;4962672;28;114262;-71
2023/02/02 08:03:37;;;;;;;12.15;2.00;;;;;;;11.61;58.67;102175.00;4975548;28;124362;-71
2023/02/02 08:06:15;;;;;;;13.50;2.67;;;;;;;11.59;58.66;102166.22;4977499;28;124329;-72
2023/02/02 08:08:42;;;;;;;12.55;2.38;;;;;;;11.60;58.73;102173.25;4965394;28;114651;-71
2023/02/02 08:11:11;;;;;;;11.15;2.30;;;;;;;11.62;58.70;102182.03;4977834;28;114256;-70
2023/02/02 08:13:39;;;;;;;11.88;2.33;;;;;;;11.62;58.86;102182.03;4957211;28;124506;-72
2023/02/02 08:16:07;;;;;;;9.05;2.40;;;;;;;11.62;58.74;102184.69;4958212;28;124067;-71
2023/02/02 08:18:35;;;;;;;10.95;2.35;;;;;;;11.61;58.95;102186.47;4961034;28;114957;-72
2023/02/02 08:21:04;;;;;;;9.30;2.63;;;;;;;11.61;58.98;102186.47;4960949;28;114536;-71
2023/02/02 08:23:32;;;;;;;9.32;2.22;;;;;;;11.63;58.76;102183.78;4977459;28;124359;-72
2023/02/02 08:26:13;;;;;;;11.27;2.30;;;;;;;11.64;58.77;102191.72;4954677;28;124331;-72
2023/02/02 08:28:41;;;;;;;10.15;2.55;;;;;;;11.66;58.81;102199.63;4958867;28;115018;-72
2023/02/02 08:31:10;;;;;;;7.82;1.63;;;;;;;11.67;58.87;102196.06;4963298;28;114804;-72
2023/02/02 08:33:38;;;;;;;13.85;2.58;;;;;;;11.69;58.90;102194.22;4965045;28;124051;-72
2023/02/02 08:36:12;;;;;;;12.95;2.33;;;;;;;11.72;58.89;102209.22;4965742;28;124174;-73
2023/02/02 08:38:39;;;;;;;8.60;1.90;;;;;;;11.73;58.94;102210.94;4958718;28;113913;-73
2023/02/02 08:41:08;;;;;;;8.05;2.10;;;;;;;11.75;58.79;102215.28;4955063;28;114143;-70
2023/02/02 08:43:36;;;;;;;10.90;1.88;;;;;;;11.76;58.93;102217.03;4954761;28;124420;-72
2023/02/02 08:46:03;;;;;;;10.38;1.83;;;;;;;11.78;58.69;102220.50;4959187;28;122735;-71
2023/02/02 08:48:34;;;;;;;12.85;2.17;;;;;;;11.81;58.80;102225.75;4959754;28;114515;-71
2023/02/02 08:51:03;;;;;;;12.93;1.95;;;;;;;11.83;58.70;102234.53;4979711;28;113002;-71
2023/02/02 08:53:31;;;;;;;11.35;2.28;;;;;;;11.84;58.73;102236.25;4965047;28;124221;-70
2023/02/02 08:56:03;;;;;;;12.38;2.03;;;;;;;11.85;58.75;102238.00;4978390;28;123121;-70
2023/02/02 08:58:32;;;;;;;8.45;2.25;;;;;;;11.87;58.76;102236.19;4954222;28;114317;-71
2023/02/02 09:01:08;;;;;;;8.57;1.90;;;;;;;11.87;58.74;102252.09;4967092;28;113831;-71
2023/02/02 09:03:38;;;;;;;8.05;2.00;;;;;;;11.91;58.72;102246.75;4954111;28;124025;-71
2023/02/02 09:06:10;;;;;;;7.65;2.20;;;;;;;11.91;58.49;102257.38;4973515;28;126553;-71
2023/02/02 09:08:37;;;;;;;6.53;1.80;;;;;;;11.91;58.50;102262.69;4952652;28;116018;-72
2023/02/02 09:11:11;;;;;;;9.20;2.42;;;;;;;11.91;58.45;102252.94;4955355;28;114197;-72
2023/02/02 09:13:40;;;;;;;13.20;2.42;;;;;;;11.92;58.65;102264.41;4974466;28;124431;-72
2023/02/02 09:16:09;;;;;;;13.20;2.17;;;;;;;11.93;58.55;102266.16;4964293;28;123940;-72
2023/02/02 09:18:37;;;;;;;7.95;2.33;;;;;;;11.96;58.78;102266.06;4971053;28;115001;-71
2023/02/02 09:21:06;;;;;;;10.32;2.10;;;;;;;11.97;58.48;102273.13;4971022;28;114669;-72
2023/02/02 09:23:35;;;;;;;8.20;2.00;;;;;;;11.97;58.55;102267.81;4966522;28;123703;-71
2023/02/02 09:26:21;;;;;;;10.95;2.63;;;;;;;11.99;58.45;102289.88;4952274;28;122782;-71
2023/02/02 09:28:52;;;;;;;6.97;2.00;;;;;;;12.01;58.48;102280.09;4969198;28;116677;-71
2023/02/02 09:31:19;;;;;;;10.10;2.10;;;;;;;12.02;58.51;102288.03;4965821;28;114002;-71
2023/02/02 09:33:46;;;;;;;9.95;2.00;;;;;;;12.04;58.24;102290.63;4963342;28;124543;-71
2023/02/02 09:36:15;;;;;;;10.15;1.95;;;;;;;12.06;58.54;102304.75;4969608;28;124303;-71
2023/02/02 09:38:43;;;;;;;7.32;1.85;;;;;;;12.08;58.33;102297.59;4971894;28;115389;-71
2023/02/02 09:41:16;;;;;;;9.27;1.85;;;;;;;12.11;58.37;102312.56;4970636;28;113980;-71
2023/02/02 09:44:13;;;;;;;12.85;2.00;;;;;;;12.15;58.31;102303.59;4969921;28;123491;-71
2023/02/02 09:47:08;;;;;;;11.25;1.90;;;;;;;12.18;58.28;102315.00;4969402;28;124517;-71
2023/02/02 09:49:38;;;;;;;5.88;1.98;;;;;;;12.22;58.47;102316.69;4970964;28;114590;-71
2023/02/02 09:52:20;;;;;;;11.20;1.92;;;;;;;12.25;58.36;102311.28;4970538;28;113570;-71
2023/02/02 09:54:51;;;;;;;8.48;2.00;;;;;;;12.29;58.23;102306.75;4955452;28;124698;-71
2023/02/02 09:57:28;;;;;;;13.07;2.22;;;;;;;12.31;58.30;102310.22;4962003;28;123804;-71
2023/02/02 09:59:56;;;;;;;8.50;1.80;;;;;;;12.36;58.34;102307.44;4964546;28;114080;-72
2023/02/02 10:02:51;;;;;;;7.63;1.85;;;;;;;12.39;58.20;102315.31;4971336;28;113713;-71
2023/02/02 10:05:23;;;;;;;7.07;1.77;;;;;;;12.41;58.24;102321.44;4955164;28;123733;-71
2023/02/02 10:07:57;;;;;;;9.18;2.00;;;;;;;12.43;58.19;102324.94;4984951;28;122892;-71
2023/02/02 10:10:34;;;;;;;8.10;2.08;;;;;;;12.46;58.00;102319.53;4970463;28;115323;-71
2023/02/02 10:13:12;;;;;;;11.20;2.00;;;;;;;12.45;58.02;102325.75;4970692;28;113711;-71
2023/02/02 10:15:42;;;;;;;7.57;1.90;;;;;;;12.48;57.99;102328.34;4967870;28;123651;-71
2023/02/02 10:18:22;;;;;;;6.82;2.00;;;;;;;12.49;58.00;102330.09;4969531;28;125727;-72
2023/02/02 10:20:59;;;;;;;13.43;1.90;;;;;;;12.51;57.92;102330.91;4989404;28;114099;-71
2023/02/02 10:23:37;;;;;;;8.13;1.83;;;;;;;12.52;58.06;102329.97;4987240;28;113952;-71
2023/02/02 10:26:25;;;;;;;13.40;2.30;;;;;;;12.54;58.00;102337.91;4966556;28;123101;-71
2023/02/02 10:29:34;;;;;;;8.15;1.75;;;;;;;12.55;57.99;102345.84;4977689;28;124446;-71
2023/02/02 10:32:25;;;;;;;10.90;2.05;;;;;;;12.55;57.83;102340.53;4959418;28;114188;-71
2023/02/02 10:34:55;;;;;;;10.00;1.92;;;;;;;12.54;57.84;102337.91;4977534;28;113345;-71
2023/02/02 10:37:53;;;;;;;13.75;2.30;;;;;;;12.52;57.82;102340.59;4970835;28;123494;-70
2023/02/02 10:40:43;;;;;;;10.88;2.17;;;;;;;12.53;57.92;102342.38;4970820;28;123826;-71
2023/02/02 10:43:47;;;;;;;10.10;2.08;;;;;;;12.54;57.96;102349.41;4962420;28;114526;-71
2023/02/02 10:46:26;;;;;;;15.05;2.35;;;;;;;12.54;57.88;102349.41;4974015;28;113502;-71
2023/02/02 10:49:12;;;;;;;10.65;2.25;;;;;;;12.55;57.77;102340.53;4964770;28;124299;-72
2023/02/02 10:51:40;;;;;;;7.97;1.70;;;;;;;12.57;57.74;102349.31;4959827;28;123893;-71
2023/02/02 10:54:37;;;;;;;8.10;2.00;;;;;;;12.57;57.90;102351.97;4963065;28;114194;-71
2023/02/02 10:58:03;;;;;;;8.27;2.10;;;;;;;12.60;58.05;102354.56;4963359;28;114471;-71
2023/02/02 11:00:49;;;;;;;8.88;1.77;;;;;;;12.62;58.00;102352.72;4971335;28;124842;-71
2023/02/02 11:03:19;;;;;;;5.68;1.38;;;;;;;12.63;57.85;102359.78;4956279;28;123749;-70
2023/02/02 11:08:37;;;;;;;13.18;2.22;;;;;;;12.65;57.86;102368.56;4964119;28;115561;-71
2023/02/02 11:11:20;;;;;;;8.02;2.50;;;;;;;12.65;57.74;102363.25;4978942;28;123314;-72
2023/02/02 11:13:57;;;;;;;9.18;1.98;;;;;;;12.68;57.83;102367.63;4963324;28;123754;-71
2023/02/02 11:16:30;;;;;;;6.70;1.80;;;;;;;12.69;57.83;102373.81;4962637;28;114074;-73
2023/02/02 11:19:16;;;;;;;9.18;2.00;;;;;;;12.71;57.77;102361.34;4982429;28;96891;-71
2023/02/02 11:21:49;;;;;;;11.00;1.70;;;;;;;12.70;57.61;102360.47;4979454;28;123943;-71
2023/02/02 11:24:38;;;;;;;6.75;1.83;;;;;;;12.71;57.56;102358.69;4965460;28;123452;-71
2023/02/02 11:27:16;;;;;;;13.45;2.05;;;;;;;12.71;57.76;102356.03;4966979;28;113769;-71
2023/02/02 11:29:55;;;;;;;7.03;1.70;;;;;;;12.70;57.61;102359.63;4981747;28;114318;-71
2023/02/02 11:32:31;;;;;;;8.15;1.95;;;;;;;12.71;57.64;102361.34;4983725;28;123912;-71
2023/02/02 11:35:20;;;;;;;7.72;1.63;;;;;;;12.71;57.56;102361.34;4937562;28;123169;-71
2023/02/02 11:37:54;;;;;;;10.60;2.20;;;;;;;12.72;57.44;102360.44;4968813;28;113965;-71
2023/02/02 11:40:38;;;;;;;10.07;2.08;;;;;;;12.71;57.38;102356.03;4969574;28;114019;-71
2023/02/02 11:43:17;;;;;;;6.45;1.77;;;;;;;12.69;57.37;102352.53;4981520;28;123808;-71
2023/02/02 11:45:52;;;;;;;7.63;1.70;;;;;;;12.70;57.55;102348.97;4964225;28;124192;-71
2023/02/02 11:48:23;;;;;;;5.72;1.70;;;;;;;12.71;57.49;102350.69;4961891;28;113086;-71